createdAt,value
2018-03-27T00:01:41.607Z,6.07
2018-03-27T00:02:41.581Z,6.07
2018-03-27T00:04:36.011Z,6.25
2018-03-27T00:05:36.012Z,6.20
2018-03-27T00:07:31.961Z,6.42
2018-03-27T00:08:31.925Z,6.39
2018-03-27T00:10:27.378Z,6.54
2018-03-27T00:11:26.380Z,6.51
2018-03-27T00:13:21.318Z,6.55
2018-03-27T00:14:21.319Z,6.54
2018-03-27T00:16:16.250Z,6.58
2018-03-27T00:17:15.734Z,6.65
2018-03-27T00:19:09.168Z,6.72
2018-03-27T00:20:09.162Z,6.73
2018-03-27T00:22:03.068Z,6.79
2018-03-27T00:23:03.576Z,6.76
2018-03-27T00:24:59.479Z,6.83
2018-03-27T00:25:57.974Z,6.90
2018-03-27T00:27:53.377Z,6.97
2018-03-27T00:28:53.381Z,7.00
2018-03-27T00:30:49.334Z,6.97
2018-03-27T00:31:49.291Z,6.91
2018-03-27T00:33:42.754Z,6.95
2018-03-27T00:34:42.724Z,7.03
2018-03-27T00:36:36.174Z,6.97
2018-03-27T00:37:37.673Z,6.95
2018-03-27T00:39:31.125Z,6.88
2018-03-27T00:40:30.594Z,6.95
2018-03-27T00:42:25.533Z,6.95
2018-03-27T00:43:25.967Z,6.91
2018-03-27T00:45:18.975Z,6.83
2018-03-27T00:46:18.455Z,6.78
2018-03-27T00:48:11.881Z,6.68
2018-03-27T00:49:11.898Z,6.68
2018-03-27T00:51:05.356Z,6.75
2018-03-27T00:52:05.323Z,6.72
2018-03-27T00:54:00.282Z,6.79
2018-03-27T00:54:59.763Z,6.79
2018-03-27T00:56:55.712Z,6.78
2018-03-27T00:57:54.720Z,6.79
2018-03-27T00:59:48.661Z,6.67
2018-03-27T01:00:48.620Z,6.60
2018-03-27T01:02:43.057Z,6.44
2018-03-27T01:03:43.056Z,6.44
2018-03-27T01:05:37.010Z,6.43
2018-03-27T01:06:36.496Z,6.34
2018-03-27T01:08:29.893Z,6.26
2018-03-27T01:09:29.876Z,6.31
2018-03-27T01:11:23.832Z,6.14
2018-03-27T01:12:23.291Z,6.13
2018-03-27T01:14:18.752Z,6.13
2018-03-27T01:15:18.250Z,6.02
2018-03-27T01:17:12.181Z,6.05
2018-03-27T01:18:12.667Z,6.05
2018-03-27T01:20:05.577Z,6.06
2018-03-27T01:21:05.580Z,5.99
2018-03-27T01:23:00.025Z,5.91
2018-03-27T01:24:00.531Z,5.85
2018-03-27T01:25:54.480Z,5.81
2018-03-27T01:26:54.436Z,5.75
2018-03-27T01:28:48.839Z,5.64
2018-03-27T01:29:49.386Z,5.63
2018-03-27T01:31:43.775Z,5.54
2018-03-27T01:32:43.267Z,5.62
2018-03-27T01:34:37.668Z,5.49
2018-03-27T01:35:38.196Z,5.54
2018-03-27T01:37:32.100Z,5.60
2018-03-27T01:38:32.099Z,5.73
2018-03-27T01:40:27.062Z,5.60
2018-03-27T01:41:26.531Z,5.59
2018-03-27T01:43:19.999Z,5.51
2018-03-27T01:44:19.952Z,5.55
2018-03-27T01:46:14.912Z,5.45
2018-03-27T01:47:15.398Z,5.39
2018-03-27T01:49:08.424Z,5.37
2018-03-27T01:50:08.440Z,5.39
2018-03-27T01:52:04.824Z,5.33
2018-03-27T01:53:03.813Z,5.28
2018-03-27T01:54:57.275Z,5.21
2018-03-27T01:55:57.775Z,5.24
2018-03-27T01:57:53.195Z,5.12
2018-03-27T01:58:52.193Z,5.13
2018-03-27T02:00:46.614Z,5.13
2018-03-27T02:01:46.099Z,5.16
2018-03-27T02:03:40.590Z,5.08
2018-03-27T02:04:41.056Z,5.12
2018-03-27T02:06:34.982Z,5.16
2018-03-27T02:07:34.949Z,5.21
2018-03-27T02:09:29.385Z,5.13
2018-03-27T02:10:29.398Z,5.13
2018-03-27T02:12:25.349Z,5.05
2018-03-27T02:13:25.326Z,5.02
2018-03-27T02:15:19.783Z,4.85
2018-03-27T02:16:20.278Z,4.76
2018-03-27T02:18:14.194Z,4.91
2018-03-27T02:19:14.153Z,4.84
2018-03-27T02:21:09.109Z,4.74
2018-03-27T02:22:08.584Z,4.66
2018-03-27T02:24:02.000Z,4.65
2018-03-27T02:25:02.001Z,4.74
2018-03-27T02:26:56.467Z,4.71
2018-03-27T02:27:56.938Z,4.68
2018-03-27T02:29:51.381Z,4.60
2018-03-27T02:30:50.854Z,4.64
2018-03-27T02:32:45.785Z,4.56
2018-03-27T02:33:45.796Z,4.53
2018-03-27T02:35:41.221Z,4.57
2018-03-27T02:36:41.713Z,4.60
2018-03-27T02:38:36.144Z,4.56
2018-03-27T02:39:35.585Z,4.57
2018-03-27T02:41:32.027Z,4.58
2018-03-27T02:42:31.517Z,4.54
2018-03-27T02:44:25.987Z,4.48
2018-03-27T02:45:25.946Z,4.53
2018-03-27T02:47:20.903Z,4.48
2018-03-27T02:48:20.381Z,4.54
2018-03-27T02:50:13.846Z,4.39
2018-03-27T02:51:13.793Z,4.40
2018-03-27T02:53:10.246Z,4.38
2018-03-27T02:54:10.234Z,4.28
2018-03-27T02:56:05.703Z,4.28
2018-03-27T02:57:05.655Z,4.29
2018-03-27T02:59:02.595Z,4.20
2018-03-27T03:00:01.544Z,4.24
2018-03-27T03:01:55.970Z,4.12
2018-03-27T03:02:55.962Z,4.15
2018-03-27T03:04:50.371Z,4.10
2018-03-27T03:05:50.386Z,4.17
2018-03-27T03:07:43.830Z,4.28
2018-03-27T03:08:43.792Z,4.11
2018-03-27T03:10:39.756Z,4.10
2018-03-27T03:11:40.253Z,4.15
2018-03-27T03:13:36.180Z,4.08
2018-03-27T03:14:35.659Z,4.14
2018-03-27T03:16:30.097Z,4.15
2018-03-27T03:17:30.593Z,4.11
2018-03-27T03:19:23.487Z,4.24
2018-03-27T03:20:23.490Z,4.18
2018-03-27T03:22:17.934Z,4.11
2018-03-27T03:23:19.376Z,4.08
2018-03-27T03:25:12.347Z,4.15
2018-03-27T03:26:12.864Z,4.11
2018-03-27T03:28:07.286Z,4.22
2018-03-27T03:29:06.766Z,4.22
2018-03-27T03:31:03.711Z,4.18
2018-03-27T03:32:02.679Z,4.11
2018-03-27T03:33:58.647Z,4.21
2018-03-27T03:34:59.141Z,4.20
2018-03-27T03:36:53.566Z,4.26
2018-03-27T03:37:53.035Z,4.20
2018-03-27T03:39:48.494Z,4.17
2018-03-27T03:40:47.979Z,4.21
2018-03-27T03:42:40.893Z,4.21
2018-03-27T03:43:41.414Z,4.29
2018-03-27T03:45:37.318Z,4.21
2018-03-27T03:46:36.795Z,4.21
2018-03-27T03:48:32.689Z,4.32
2018-03-27T03:49:32.688Z,4.20
2018-03-27T03:51:29.130Z,4.24
2018-03-27T03:52:28.597Z,4.26
2018-03-27T03:54:24.550Z,4.07
2018-03-27T03:55:25.046Z,4.10
2018-03-27T03:57:17.949Z,3.93
2018-03-27T03:58:17.946Z,3.94
2018-03-27T04:00:12.883Z,3.89
2018-03-27T04:01:12.373Z,3.96
2018-03-27T04:03:05.811Z,4.04
2018-03-27T04:04:05.813Z,4.04
2018-03-27T04:06:00.764Z,4.04
2018-03-27T04:07:00.736Z,4.10
2018-03-27T04:08:54.634Z,4.14
2018-03-27T04:09:54.609Z,4.17
2018-03-27T04:11:50.059Z,4.12
2018-03-27T04:12:49.030Z,4.17
2018-03-27T04:14:43.976Z,4.17
2018-03-27T04:15:43.456Z,4.14
2018-03-27T04:17:38.405Z,4.11
2018-03-27T04:18:37.883Z,4.10
2018-03-27T04:20:32.815Z,4.14
2018-03-27T04:21:32.316Z,4.14
2018-03-27T04:23:26.773Z,4.14
2018-03-27T04:24:26.739Z,4.11
2018-03-27T04:26:20.683Z,4.12
2018-03-27T04:27:20.157Z,4.15
2018-03-27T04:29:16.054Z,4.20
2018-03-27T04:30:16.045Z,4.14
2018-03-27T04:32:12.989Z,4.11
2018-03-27T04:33:13.504Z,4.07
2018-03-27T04:35:07.923Z,4.10
2018-03-27T04:36:07.885Z,4.14
2018-03-27T04:38:02.833Z,4.18
2018-03-27T04:39:02.832Z,4.14
2018-03-27T04:40:59.255Z,4.03
2018-03-27T04:41:58.232Z,4.08
2018-03-27T04:43:51.711Z,4.14
2018-03-27T04:44:51.654Z,4.18
2018-03-27T04:46:46.597Z,4.22
2018-03-27T04:47:46.071Z,4.07
2018-03-27T04:49:43.526Z,4.18
2018-03-27T04:50:43.017Z,4.12
2018-03-27T04:52:39.040Z,4.07
2018-03-27T04:53:38.003Z,4.17
2018-03-27T04:55:34.455Z,4.20
2018-03-27T04:56:33.927Z,4.29
2018-03-27T04:58:28.404Z,4.36
2018-03-27T04:59:28.324Z,4.20
2018-03-27T05:01:21.777Z,4.30
2018-03-27T05:02:22.266Z,4.17
2018-03-27T05:04:15.194Z,4.22
2018-03-27T05:05:15.685Z,4.17
2018-03-27T05:07:10.105Z,4.14
2018-03-27T05:08:10.115Z,4.04
2018-03-27T05:10:04.451Z,4.15
2018-03-27T05:11:03.000Z,4.24
2018-03-27T05:12:57.422Z,4.21
2018-03-27T05:13:57.419Z,4.11
2018-03-27T05:15:51.848Z,4.26
2018-03-27T05:16:52.364Z,4.26
2018-03-27T05:18:46.295Z,4.22
2018-03-27T05:19:46.709Z,4.20
2018-03-27T05:21:41.664Z,4.33
2018-03-27T05:22:41.176Z,4.38
2018-03-27T05:24:36.093Z,4.38
2018-03-27T05:25:35.062Z,4.39
2018-03-27T05:27:30.011Z,4.29
2018-03-27T05:28:30.000Z,4.17
2018-03-27T05:30:24.911Z,4.12
2018-03-27T05:31:24.405Z,4.17
2018-03-27T05:33:19.872Z,4.12
2018-03-27T05:34:20.348Z,4.14
2018-03-27T05:36:15.279Z,4.17
2018-03-27T05:37:14.784Z,4.14
2018-03-27T05:39:09.181Z,4.21
2018-03-27T05:40:08.625Z,4.22
2018-03-27T05:42:03.586Z,4.22
2018-03-27T05:43:03.044Z,4.21
2018-03-27T05:44:58.952Z,4.36
2018-03-27T05:45:58.963Z,4.40
2018-03-27T05:47:52.399Z,4.40
2018-03-27T05:48:52.383Z,4.44
2018-03-27T05:50:48.838Z,4.46
2018-03-27T05:51:48.410Z,4.48
2018-03-27T05:53:43.266Z,4.57
2018-03-27T05:54:42.745Z,4.58
2018-03-27T05:56:38.690Z,4.65
2018-03-27T05:57:38.687Z,4.64
2018-03-27T05:59:33.618Z,4.68
2018-03-27T06:00:33.613Z,4.74
2018-03-27T06:02:29.035Z,4.71
2018-03-27T06:03:29.025Z,4.71
2018-03-27T06:05:23.443Z,4.84
2018-03-27T06:06:23.956Z,4.76
2018-03-27T06:08:19.877Z,4.94
2018-03-27T06:09:19.364Z,4.91
2018-03-27T06:11:15.853Z,4.98
2018-03-27T06:12:15.306Z,4.94
2018-03-27T06:14:10.239Z,5.05
2018-03-27T06:15:09.710Z,5.05
2018-03-27T06:17:04.131Z,5.08
2018-03-27T06:18:04.658Z,5.20
2018-03-27T06:19:57.583Z,5.10
2018-03-27T06:20:57.562Z,5.13
2018-03-27T06:22:51.992Z,5.24
2018-03-27T06:23:51.980Z,5.36
2018-03-27T06:25:48.439Z,5.33
2018-03-27T06:26:48.425Z,5.41
2018-03-27T06:28:44.354Z,5.39
2018-03-27T06:29:43.817Z,5.41
2018-03-27T06:31:39.782Z,5.36
2018-03-27T06:32:40.263Z,5.42
2018-03-27T06:34:34.674Z,5.36
2018-03-27T06:35:34.145Z,5.37
2018-03-27T06:37:29.117Z,5.52
2018-03-27T06:38:29.107Z,5.55
2018-03-27T06:40:22.999Z,5.52
2018-03-27T06:41:23.006Z,5.52
2018-03-27T06:43:17.929Z,5.63
2018-03-27T06:44:17.415Z,5.60
2018-03-27T06:46:11.373Z,5.62
2018-03-27T06:47:11.356Z,5.70
2018-03-27T06:49:05.310Z,5.72
2018-03-27T06:50:05.716Z,5.69
2018-03-27T06:51:59.644Z,5.73
2018-03-27T06:53:00.168Z,5.70
2018-03-27T06:54:55.609Z,5.78
2018-03-27T06:55:55.577Z,5.80
2018-03-27T06:57:49.529Z,5.91
2018-03-27T06:58:49.013Z,5.85
2018-03-27T07:00:45.452Z,6.09
2018-03-27T07:01:44.956Z,6.09
2018-03-27T07:03:38.910Z,6.09
2018-03-27T07:04:38.378Z,6.05
2018-03-27T07:06:34.777Z,6.09
2018-03-27T07:07:34.308Z,6.13
2018-03-27T07:09:29.247Z,6.15
2018-03-27T07:10:28.721Z,6.14
2018-03-27T07:12:24.621Z,6.37
2018-03-27T07:13:24.606Z,6.39
2018-03-27T07:15:19.093Z,6.42
2018-03-27T07:16:19.037Z,6.57
2018-03-27T07:18:12.979Z,6.65
2018-03-27T07:19:12.483Z,6.64
2018-03-27T07:21:06.921Z,6.73
2018-03-27T07:22:06.907Z,6.83
2018-03-27T07:24:01.334Z,6.88
2018-03-27T07:25:01.856Z,6.91
2018-03-27T07:26:54.830Z,6.94
2018-03-27T07:27:54.756Z,6.82
2018-03-27T07:29:49.173Z,7.03
2018-03-27T07:30:49.698Z,7.09
2018-03-27T07:32:44.122Z,7.16
2018-03-27T07:33:43.598Z,7.26
2018-03-27T07:35:38.031Z,7.45
2018-03-27T07:36:38.537Z,7.54
2018-03-27T07:38:32.433Z,7.61
2018-03-27T07:39:33.976Z,7.63
2018-03-27T07:41:28.379Z,7.78
2018-03-27T07:42:28.856Z,7.80
2018-03-27T07:44:25.315Z,7.92
2018-03-27T07:45:24.427Z,8.04
2018-03-27T07:47:19.377Z,8.01
2018-03-27T07:48:18.851Z,8.07
2018-03-27T07:50:12.290Z,8.16
2018-03-27T07:51:12.281Z,8.25
2018-03-27T07:53:05.740Z,8.29
2018-03-27T07:54:05.705Z,8.40
2018-03-27T07:56:00.669Z,8.43
2018-03-27T07:57:00.157Z,8.43
2018-03-27T07:58:55.102Z,8.65
2018-03-27T07:59:54.556Z,8.60
2018-03-27T08:01:49.494Z,8.67
2018-03-27T08:02:48.977Z,8.68
2018-03-27T08:04:42.939Z,8.85
2018-03-27T08:05:42.935Z,8.86
2018-03-27T08:07:37.874Z,9.01
2018-03-27T08:08:36.879Z,8.89
2018-03-27T08:10:31.344Z,8.90
2018-03-27T08:11:31.340Z,8.92
2018-03-27T08:13:24.806Z,8.85
2018-03-27T08:14:25.775Z,8.94
2018-03-27T08:16:19.213Z,8.98
2018-03-27T08:17:19.230Z,9.00
2018-03-27T08:19:13.679Z,9.08
2018-03-27T08:20:14.162Z,9.12
2018-03-27T08:22:09.547Z,9.16
2018-03-27T08:23:10.085Z,9.27
2018-03-27T08:25:03.023Z,9.35
2018-03-27T08:26:03.006Z,9.32
2018-03-27T08:27:56.507Z,9.32
2018-03-27T08:28:56.471Z,9.27
2018-03-27T08:30:50.920Z,9.42
2018-03-27T08:31:51.428Z,9.45
2018-03-27T08:33:45.368Z,9.52
2018-03-27T08:34:45.360Z,9.48
2018-03-27T08:36:39.783Z,9.60
2018-03-27T08:37:39.798Z,9.59
2018-03-27T08:39:34.263Z,9.50
2018-03-27T08:40:34.752Z,9.47
2018-03-27T08:42:28.711Z,9.47
2018-03-27T08:43:28.664Z,9.63
2018-03-27T08:45:23.649Z,9.78
2018-03-27T08:46:23.119Z,9.81
2018-03-27T08:48:19.990Z,9.84
2018-03-27T08:49:19.053Z,9.85
2018-03-27T08:51:14.020Z,9.56
2018-03-27T08:52:13.508Z,9.67
2018-03-27T08:54:07.967Z,9.77
2018-03-27T08:55:07.927Z,9.80
2018-03-27T08:57:01.882Z,9.92
2018-03-27T08:58:01.374Z,9.96
2018-03-27T08:59:54.815Z,9.88
2018-03-27T09:00:55.317Z,9.98
2018-03-27T09:02:49.188Z,9.93
2018-03-27T09:03:48.242Z,9.90
2018-03-27T09:05:42.686Z,9.89
2018-03-27T09:06:42.676Z,10.05
2018-03-27T09:08:38.653Z,10.20
2018-03-27T09:09:39.070Z,10.20
2018-03-27T09:11:35.053Z,10.18
2018-03-27T09:12:34.535Z,10.21
2018-03-27T09:14:31.008Z,10.08
2018-03-27T09:15:30.468Z,10.15
2018-03-27T09:17:27.413Z,10.20
2018-03-27T09:18:26.413Z,10.20
2018-03-27T09:20:20.847Z,10.44
2018-03-27T09:21:20.855Z,10.54
2018-03-27T09:23:17.311Z,10.59
2018-03-27T09:24:16.788Z,10.63
2018-03-27T09:26:10.252Z,10.46
2018-03-27T09:27:10.743Z,10.39
2018-03-27T09:29:04.608Z,10.42
2018-03-27T09:30:04.613Z,10.39
2018-03-27T09:32:00.587Z,10.35
2018-03-27T09:33:01.067Z,10.42
2018-03-27T09:34:55.508Z,10.36
2018-03-27T09:35:55.514Z,10.47
2018-03-27T09:37:48.450Z,10.55
2018-03-27T09:38:48.949Z,10.70
2018-03-27T09:40:43.379Z,10.83
2018-03-27T09:41:42.864Z,10.88
2018-03-27T09:43:36.301Z,11.10
2018-03-27T09:44:36.807Z,11.21
2018-03-27T09:46:30.257Z,11.45
2018-03-27T09:47:30.247Z,11.39
2018-03-27T09:49:24.696Z,11.28
2018-03-27T09:50:24.683Z,11.35
2018-03-27T09:52:18.127Z,11.27
2018-03-27T09:53:17.598Z,11.23
2018-03-27T09:55:14.073Z,11.27
2018-03-27T09:56:13.552Z,11.18
2018-03-27T09:58:07.012Z,11.21
2018-03-27T09:59:06.985Z,11.27
2018-03-27T10:01:01.435Z,11.31
2018-03-27T10:02:01.450Z,11.28
2018-03-27T10:03:57.910Z,11.31
2018-03-27T10:04:58.406Z,11.46
2018-03-27T10:06:51.374Z,11.51
2018-03-27T10:07:50.851Z,11.52
2018-03-27T10:09:45.287Z,11.61
2018-03-27T10:10:45.807Z,11.51
2018-03-27T10:12:40.267Z,11.67
2018-03-27T10:13:40.267Z,11.70
2018-03-27T10:15:34.686Z,11.64
2018-03-27T10:16:34.163Z,11.68
2018-03-27T10:18:27.569Z,11.70
2018-03-27T10:19:27.567Z,11.75
2018-03-27T10:21:22.521Z,11.79
2018-03-27T10:22:22.002Z,11.84
2018-03-27T10:24:16.963Z,11.78
2018-03-27T10:25:16.447Z,11.86
2018-03-27T10:27:09.920Z,11.84
2018-03-27T10:28:09.914Z,11.85
2018-03-27T10:30:05.825Z,11.88
2018-03-27T10:31:04.315Z,11.91
2018-03-27T10:32:59.323Z,12.08
2018-03-27T10:33:59.274Z,12.19
2018-03-27T10:35:53.712Z,12.15
2018-03-27T10:36:54.733Z,12.16
2018-03-27T10:38:48.160Z,12.36
2018-03-27T10:39:47.616Z,12.40
2018-03-27T10:41:41.066Z,12.55
2018-03-27T10:42:41.050Z,12.61
2018-03-27T10:44:34.524Z,12.55
2018-03-27T10:45:34.510Z,12.56
2018-03-27T10:47:29.457Z,12.69
2018-03-27T10:48:29.478Z,12.73
2018-03-27T10:50:24.925Z,12.83
2018-03-27T10:51:24.921Z,12.94
2018-03-27T10:53:18.356Z,12.89
2018-03-27T10:54:18.369Z,12.70
2018-03-27T10:56:12.848Z,12.74
2018-03-27T10:57:12.823Z,12.74
2018-03-27T10:59:08.794Z,13.01
2018-03-27T11:00:08.726Z,13.09
2018-03-27T11:02:04.691Z,13.20
2018-03-27T11:03:04.690Z,13.24
2018-03-27T11:04:59.139Z,13.37
2018-03-27T11:05:59.125Z,13.40
2018-03-27T11:07:54.580Z,13.47
2018-03-27T11:08:53.575Z,13.40
2018-03-27T11:10:49.536Z,13.48
2018-03-27T11:11:48.011Z,13.39
2018-03-27T11:13:44.001Z,13.29
2018-03-27T11:14:43.955Z,13.20
2018-03-27T11:16:38.426Z,13.20
2018-03-27T11:17:38.404Z,13.39
2018-03-27T11:19:32.877Z,13.35
2018-03-27T11:20:32.861Z,13.44
2018-03-27T11:22:26.326Z,13.57
2018-03-27T11:23:26.292Z,13.57
2018-03-27T11:25:21.248Z,13.47
2018-03-27T11:26:20.733Z,13.42
2018-03-27T11:28:16.225Z,13.57
2018-03-27T11:29:16.194Z,13.69
2018-03-27T11:31:09.678Z,13.95
2018-03-27T11:32:09.647Z,13.83
2018-03-27T11:34:03.146Z,14.11
2018-03-27T11:35:03.124Z,14.16
2018-03-27T11:36:56.584Z,14.02
2018-03-27T11:37:56.573Z,14.02
2018-03-27T11:39:53.037Z,14.27
2018-03-27T11:40:52.510Z,14.31
2018-03-27T11:42:45.958Z,14.44
2018-03-27T11:43:45.961Z,14.41
2018-03-27T11:45:40.412Z,14.34
2018-03-27T11:46:40.404Z,14.28
2018-03-27T11:48:36.385Z,14.33
2018-03-27T11:49:36.327Z,14.48
2018-03-27T11:51:32.282Z,14.64
2018-03-27T11:52:32.274Z,14.67
2018-03-27T11:54:28.249Z,14.53
2018-03-27T11:55:28.219Z,14.66
2018-03-27T11:57:22.669Z,14.64
2018-03-27T11:58:22.673Z,14.64
2018-03-27T12:00:16.103Z,14.90
2018-03-27T12:01:16.109Z,14.97
2018-03-27T12:03:10.574Z,15.00
2018-03-27T12:04:11.504Z,15.10
2018-03-27T12:06:05.526Z,14.82
2018-03-27T12:07:05.519Z,14.82
2018-03-27T12:08:59.469Z,14.64
2018-03-27T12:09:58.429Z,14.64
2018-03-27T12:11:55.380Z,14.70
2018-03-27T12:12:54.383Z,14.77
2018-03-27T12:14:48.818Z,14.63
2018-03-27T12:15:48.803Z,14.52
2018-03-27T12:17:43.292Z,14.67
2018-03-27T12:18:43.779Z,14.60
2018-03-27T12:20:38.726Z,14.66
2018-03-27T12:21:38.709Z,14.53
2018-03-27T12:23:32.617Z,14.30
2018-03-27T12:24:32.196Z,14.19
2018-03-27T12:26:25.682Z,14.02
2018-03-27T12:27:26.673Z,13.95
2018-03-27T12:29:20.148Z,13.91
2018-03-27T12:30:20.652Z,13.78
2018-03-27T12:32:14.065Z,13.91
2018-03-27T12:33:14.049Z,13.83
2018-03-27T12:35:08.013Z,13.81
2018-03-27T12:36:07.997Z,13.76
2018-03-27T12:38:01.946Z,13.63
2018-03-27T12:39:02.957Z,13.69
2018-03-27T12:40:54.910Z,13.68
2018-03-27T12:41:54.907Z,13.65
2018-03-27T12:43:49.363Z,13.76
2018-03-27T12:44:49.359Z,13.81
2018-03-27T12:46:43.795Z,13.73
2018-03-27T12:47:44.325Z,13.70
2018-03-27T12:49:38.258Z,13.63
2018-03-27T12:50:38.776Z,13.70
2018-03-27T12:52:33.204Z,13.54
2018-03-27T12:53:33.190Z,13.60
2018-03-27T12:55:28.130Z,13.53
2018-03-27T12:56:27.633Z,13.45
2018-03-27T12:58:22.075Z,13.47
2018-03-27T12:59:22.093Z,13.44
2018-03-27T13:01:15.031Z,13.45
2018-03-27T13:02:15.015Z,13.48
2018-03-27T13:04:09.452Z,13.37
2018-03-27T13:05:08.451Z,13.40
2018-03-27T13:07:02.876Z,13.40
2018-03-27T13:08:02.879Z,13.47
2018-03-27T13:09:57.841Z,13.40
2018-03-27T13:10:57.834Z,13.27
2018-03-27T13:12:52.285Z,13.02
2018-03-27T13:13:52.712Z,12.96
2018-03-27T13:15:46.267Z,12.81
2018-03-27T13:16:46.221Z,12.66
2018-03-27T13:18:41.181Z,12.58
2018-03-27T13:19:42.106Z,12.62
2018-03-27T13:21:36.024Z,12.48
2018-03-27T13:22:36.522Z,12.44
2018-03-27T13:24:30.522Z,12.37
2018-03-27T13:25:30.024Z,12.33
2018-03-27T13:27:26.979Z,12.29
2018-03-27T13:28:26.484Z,12.37
2018-03-27T13:30:20.458Z,12.45
2018-03-27T13:31:21.368Z,12.44
2018-03-27T13:33:14.407Z,12.47
2018-03-27T13:34:14.401Z,12.51
2018-03-27T13:36:09.365Z,12.52
2018-03-27T13:37:08.853Z,12.41
2018-03-27T13:39:03.815Z,12.61
2018-03-27T13:40:03.261Z,12.55
2018-03-27T13:41:58.214Z,12.76
2018-03-27T13:42:58.217Z,12.83
2018-03-27T13:44:52.176Z,12.96
2018-03-27T13:45:52.152Z,12.92
2018-03-27T13:47:47.115Z,12.94
2018-03-27T13:48:45.590Z,13.02
2018-03-27T13:50:40.059Z,13.03
2018-03-27T13:51:40.039Z,13.19
2018-03-27T13:53:33.551Z,13.25
2018-03-27T13:54:33.487Z,13.24
2018-03-27T13:56:29.467Z,13.21
2018-03-27T13:57:29.445Z,13.27
2018-03-27T13:59:25.392Z,13.37
2018-03-27T14:00:24.403Z,13.31
2018-03-27T14:02:18.812Z,13.35
2018-03-27T14:03:17.287Z,13.37
2018-03-27T14:05:12.262Z,13.35
2018-03-27T14:06:12.264Z,13.29
2018-03-27T14:08:07.714Z,13.19
2018-03-27T14:09:08.708Z,13.21
2018-03-27T14:11:03.172Z,13.13
2018-03-27T14:12:03.663Z,13.25
2018-03-27T14:13:57.108Z,13.29
2018-03-27T14:14:57.100Z,13.36
2018-03-27T14:16:51.038Z,13.20
2018-03-27T14:17:50.060Z,13.09
2018-03-27T14:19:44.480Z,13.01
2018-03-27T14:20:44.487Z,12.89
2018-03-27T14:22:39.431Z,12.66
2018-03-27T14:23:38.971Z,12.69
2018-03-27T14:25:33.410Z,12.59
2018-03-27T14:26:34.820Z,12.43
2018-03-27T14:28:26.861Z,12.31
2018-03-27T14:29:27.376Z,12.28
2018-03-27T14:31:21.289Z,12.22
2018-03-27T14:32:21.759Z,12.29
2018-03-27T14:34:16.220Z,12.26
2018-03-27T14:35:15.696Z,12.23
2018-03-27T14:37:09.166Z,12.18
2018-03-27T14:38:09.162Z,12.23
2018-03-27T14:40:03.634Z,12.03
2018-03-27T14:41:04.610Z,11.98
2018-03-27T14:42:59.576Z,11.79
2018-03-27T14:43:58.059Z,11.79
2018-03-27T14:45:53.028Z,11.75
2018-03-27T14:46:53.453Z,11.73
2018-03-27T14:48:46.921Z,11.64
2018-03-27T14:49:46.915Z,11.64
2018-03-27T14:51:41.399Z,11.71
2018-03-27T14:52:41.367Z,11.75
2018-03-27T14:54:36.322Z,11.76
2018-03-27T14:55:35.834Z,11.84
2018-03-27T14:57:30.294Z,11.73
2018-03-27T14:58:30.778Z,11.81
2018-03-27T15:00:24.728Z,11.73
2018-03-27T15:01:24.714Z,11.70
2018-03-27T15:03:18.681Z,11.68
2018-03-27T15:04:18.668Z,11.70
2018-03-27T15:06:14.124Z,11.78
2018-03-27T15:07:14.092Z,11.73
2018-03-27T15:09:07.547Z,11.64
2018-03-27T15:10:07.531Z,11.53
2018-03-27T15:12:02.462Z,11.39
2018-03-27T15:13:02.456Z,11.41
2018-03-27T15:14:57.860Z,11.41
2018-03-27T15:15:57.861Z,11.42
2018-03-27T15:17:52.826Z,11.45
2018-03-27T15:18:52.311Z,11.24
2018-03-27T15:20:45.795Z,11.18
2018-03-27T15:21:46.276Z,11.26
2018-03-27T15:23:39.707Z,11.20
2018-03-27T15:24:39.197Z,11.10
2018-03-27T15:26:34.158Z,11.13
2018-03-27T15:27:33.641Z,11.13
2018-03-27T15:29:27.595Z,10.97
2018-03-27T15:30:27.068Z,11.00
2018-03-27T15:32:22.021Z,11.00
2018-03-27T15:33:21.501Z,10.95
2018-03-27T15:35:15.948Z,10.90
2018-03-27T15:36:15.938Z,10.87
2018-03-27T15:38:10.409Z,10.70
2018-03-27T15:39:10.376Z,10.70
2018-03-27T15:41:03.841Z,10.66
2018-03-27T15:42:03.804Z,10.55
2018-03-27T15:43:58.754Z,10.42
2018-03-27T15:44:58.231Z,10.47
2018-03-27T15:46:54.703Z,10.36
2018-03-27T15:47:54.682Z,10.35
2018-03-27T15:49:49.126Z,10.41
2018-03-27T15:50:48.605Z,10.32
2018-03-27T15:52:44.045Z,10.32
2018-03-27T15:53:43.241Z,10.28
2018-03-27T15:55:41.216Z,10.31
2018-03-27T15:56:39.174Z,10.25
2018-03-27T15:58:34.646Z,10.20
2018-03-27T15:59:34.138Z,10.33
2018-03-27T16:01:27.050Z,10.20
2018-03-27T16:02:27.536Z,10.18
2018-03-27T16:04:23.978Z,10.20
2018-03-27T16:05:22.959Z,10.13
2018-03-27T16:07:18.898Z,10.10
2018-03-27T16:08:19.426Z,10.07
2018-03-27T16:10:13.361Z,10.02
2018-03-27T16:11:13.855Z,10.00
2018-03-27T16:13:08.272Z,9.98
2018-03-27T16:14:07.277Z,9.90
2018-03-27T16:16:02.746Z,9.92
2018-03-27T16:17:02.712Z,9.82
2018-03-27T16:18:57.680Z,9.77
2018-03-27T16:19:57.115Z,9.75
2018-03-27T16:21:50.537Z,9.81
2018-03-27T16:22:50.555Z,9.70
2018-03-27T16:24:44.499Z,9.59
2018-03-27T16:25:43.982Z,9.62
2018-03-27T16:27:38.918Z,9.57
2018-03-27T16:28:38.924Z,9.47
2018-03-27T16:30:33.366Z,9.48
2018-03-27T16:31:32.843Z,9.42
2018-03-27T16:33:27.293Z,9.53
2018-03-27T16:34:27.327Z,9.53
2018-03-27T16:36:23.252Z,9.45
2018-03-27T16:37:21.733Z,9.45
2018-03-27T16:39:16.142Z,9.26
2018-03-27T16:40:16.675Z,9.27
2018-03-27T16:42:09.612Z,9.37
2018-03-27T16:43:10.109Z,9.34
2018-03-27T16:45:05.038Z,9.24
2018-03-27T16:46:04.514Z,9.26
2018-03-27T16:47:58.415Z,9.16
2018-03-27T16:48:58.957Z,9.14
2018-03-27T16:50:51.926Z,9.14
2018-03-27T16:51:52.380Z,9.29
2018-03-27T16:53:46.276Z,9.23
2018-03-27T16:54:46.287Z,9.12
2018-03-27T16:56:41.722Z,9.05
2018-03-27T16:57:40.714Z,9.05
2018-03-27T16:59:34.198Z,9.04
2018-03-27T17:00:34.164Z,9.17
2018-03-27T17:02:28.615Z,9.08
2018-03-27T17:03:28.595Z,9.03
2018-03-27T17:05:23.535Z,9.01
2018-03-27T17:06:23.541Z,9.03
2018-03-27T17:08:18.009Z,9.04
2018-03-27T17:09:17.480Z,9.04
2018-03-27T17:11:12.436Z,8.97
2018-03-27T17:12:11.918Z,9.00
2018-03-27T17:14:06.881Z,8.86
2018-03-27T17:15:05.353Z,8.80
2018-03-27T17:16:58.792Z,8.89
2018-03-27T17:17:58.793Z,8.85
2018-03-27T17:19:53.747Z,8.72
2018-03-27T17:20:53.238Z,8.69
2018-03-27T17:22:47.615Z,8.69
2018-03-27T17:23:46.716Z,8.71
2018-03-27T17:25:40.657Z,8.65
2018-03-27T17:26:40.648Z,8.72
2018-03-27T17:28:35.573Z,8.67
2018-03-27T17:29:35.079Z,8.65
2018-03-27T17:31:28.006Z,8.62
2018-03-27T17:32:27.961Z,8.64
2018-03-27T17:34:21.417Z,8.58
2018-03-27T17:35:21.405Z,8.64
2018-03-27T17:37:15.361Z,8.61
2018-03-27T17:38:15.787Z,8.65
2018-03-27T17:40:08.263Z,8.65
2018-03-27T17:41:08.272Z,8.68
2018-03-27T17:43:04.715Z,8.67
2018-03-27T17:44:02.727Z,8.80
2018-03-27T17:45:57.687Z,8.76
2018-03-27T17:46:57.170Z,8.74
2018-03-27T17:48:54.634Z,8.72
2018-03-27T17:49:51.578Z,8.76
2018-03-27T17:51:45.016Z,8.65
2018-03-27T17:52:45.503Z,8.67
2018-03-27T17:54:39.444Z,8.64
2018-03-27T17:55:39.405Z,8.65
2018-03-27T17:57:33.875Z,8.64
2018-03-27T17:58:34.355Z,8.61
2018-03-27T18:00:28.770Z,8.58
2018-03-27T18:01:27.773Z,8.64
2018-03-27T18:03:21.694Z,8.54
2018-03-27T18:04:20.685Z,8.60
2018-03-27T18:06:14.106Z,8.64
2018-03-27T18:07:15.637Z,8.64
2018-03-27T18:09:08.515Z,8.58
2018-03-27T18:10:08.500Z,8.58
2018-03-27T18:12:01.918Z,8.54
2018-03-27T18:13:01.933Z,8.57
2018-03-27T18:14:56.361Z,8.52
2018-03-27T18:15:56.881Z,8.57
2018-03-27T18:17:49.817Z,8.50
2018-03-27T18:18:49.797Z,8.50
2018-03-27T18:20:43.735Z,8.46
2018-03-27T18:21:43.239Z,8.49
2018-03-27T18:23:36.674Z,8.46
2018-03-27T18:24:37.165Z,8.42
2018-03-27T18:26:31.102Z,8.46
2018-03-27T18:27:30.106Z,8.34
2018-03-27T18:29:26.564Z,8.35
2018-03-27T18:30:24.545Z,8.36
2018-03-27T18:32:19.485Z,8.39
2018-03-27T18:33:17.973Z,8.35
2018-03-27T18:35:12.429Z,8.43
2018-03-27T18:36:11.428Z,8.44
2018-03-27T18:38:05.857Z,8.42
2018-03-27T18:39:05.368Z,8.42
2018-03-27T18:41:00.295Z,8.34
2018-03-27T18:41:59.264Z,8.34
2018-03-27T18:43:53.723Z,8.35
2018-03-27T18:44:54.220Z,8.44
2018-03-27T18:46:49.144Z,8.34
2018-03-27T18:47:48.124Z,8.32
2018-03-27T18:49:43.074Z,8.34
2018-03-27T18:50:43.074Z,8.35
2018-03-27T18:52:36.015Z,8.32
2018-03-27T18:53:35.996Z,8.32
2018-03-27T18:55:29.944Z,8.39
2018-03-27T18:56:29.436Z,8.35
2018-03-27T18:58:22.860Z,8.34
2018-03-27T18:59:23.397Z,8.42
2018-03-27T19:01:16.285Z,8.39
2018-03-27T19:02:16.274Z,8.32
2018-03-27T19:04:11.217Z,8.29
2018-03-27T19:05:11.215Z,8.40
2018-03-27T19:07:04.142Z,8.42